createdAt,value
2018-01-04T00:01:12.942Z,86.10
2018-01-04T00:03:39.196Z,86.00
2018-01-04T00:06:05.526Z,86.10
2018-01-04T00:08:31.796Z,86.60
2018-01-04T00:10:58.089Z,86.30
2018-01-04T00:13:24.370Z,86.60
2018-01-04T00:15:50.627Z,86.70
2018-01-04T00:18:17.660Z,87.50
2018-01-04T00:20:43.949Z,87.50
2018-01-04T00:23:10.325Z,87.30
2018-01-04T00:25:37.368Z,88.20
2018-01-04T00:28:03.648Z,87.60
2018-01-04T00:30:29.945Z,87.80
2018-01-04T00:32:56.945Z,87.80
2018-01-04T00:35:23.239Z,87.80
2018-01-04T00:37:49.537Z,88.30
2018-01-04T00:40:16.539Z,88.00
2018-01-04T00:42:44.734Z,88.00
2018-01-04T00:47:42.881Z,87.50
2018-01-04T00:50:09.149Z,87.60
2018-01-04T00:52:35.431Z,87.80
2018-01-04T00:55:01.716Z,88.10
2018-01-04T00:57:27.995Z,87.80
2018-01-04T00:59:54.288Z,88.10
2018-01-04T01:02:20.567Z,88.50
2018-01-04T01:04:46.878Z,88.50
2018-01-04T01:07:13.134Z,88.80
2018-01-04T01:09:39.399Z,89.10
2018-01-04T01:12:05.695Z,89.10
2018-01-04T01:14:31.972Z,89.10
2018-01-04T01:16:58.987Z,89.50
2018-01-04T01:19:25.267Z,89.50
2018-01-04T01:21:51.560Z,89.70
2018-01-04T01:24:17.839Z,89.90
2018-01-04T01:26:44.108Z,90.00
2018-01-04T01:29:10.366Z,90.10
2018-01-04T01:31:37.383Z,90.60
2018-01-04T01:34:03.637Z,90.40
2018-01-04T01:36:29.945Z,90.40
2018-01-04T01:38:56.226Z,90.40
2018-01-04T01:41:22.507Z,90.30
2018-01-04T01:43:48.784Z,90.20
2018-01-04T01:46:15.021Z,89.90
2018-01-04T01:48:41.300Z,89.40
2018-01-04T01:51:07.566Z,89.20
2018-01-04T01:53:33.843Z,89.10
2018-01-04T01:56:00.105Z,89.00
2018-01-04T01:58:26.382Z,89.10
2018-01-04T02:00:52.641Z,88.70
2018-01-04T02:03:18.912Z,88.60
2018-01-04T02:05:46.696Z,88.40
2018-01-04T02:08:12.939Z,88.50
2018-01-04T02:10:39.214Z,88.30
2018-01-04T02:13:05.488Z,88.20
2018-01-04T02:15:31.767Z,87.80
2018-01-04T02:18:10.181Z,87.80
2018-01-04T02:20:48.557Z,87.70
2018-01-04T02:23:26.994Z,87.50
2018-01-04T02:25:53.275Z,87.40
2018-01-04T02:28:31.808Z,87.30
2018-01-04T02:31:10.333Z,87.50
2018-01-04T02:33:48.756Z,87.80
2018-01-04T02:36:27.138Z,87.80
2018-01-04T02:42:04.621Z,88.00
2018-01-04T02:44:38.685Z,88.20
2018-01-04T02:47:04.977Z,88.20
2018-01-04T02:49:31.275Z,88.20
2018-01-04T02:51:57.557Z,88.30
2018-01-04T02:54:23.843Z,88.00
2018-01-04T02:56:50.120Z,88.20
2018-01-04T02:59:16.383Z,88.00
2018-01-04T03:01:42.680Z,88.00
2018-01-04T03:04:08.988Z,87.90
2018-01-04T03:06:35.287Z,87.90
2018-01-04T03:09:01.561Z,88.10
2018-01-04T03:11:27.868Z,87.60
2018-01-04T03:13:54.134Z,87.90
2018-01-04T03:16:20.418Z,87.90
2018-01-04T03:18:47.460Z,88.10
2018-01-04T03:21:14.463Z,88.30
2018-01-04T03:23:40.806Z,88.30
2018-01-04T03:26:13.223Z,88.40
2018-01-04T03:28:45.634Z,88.40
2018-01-04T03:31:17.986Z,88.50
2018-01-04T03:33:50.275Z,88.70
2018-01-04T03:36:22.517Z,88.70
2018-01-04T03:38:54.951Z,88.80
2018-01-04T03:41:41.064Z,88.70
2018-01-04T03:44:14.074Z,88.30
2018-01-04T03:46:46.426Z,88.20
2018-01-04T03:52:23.224Z,88.30
2018-01-04T03:54:55.610Z,88.30
2018-01-04T03:57:27.875Z,88.30
2018-01-04T04:00:00.279Z,88.30
2018-01-04T04:02:32.631Z,88.50
2018-01-04T04:05:04.940Z,88.40
2018-01-04T04:07:31.209Z,88.40
2018-01-04T04:09:58.200Z,88.00
2018-01-04T04:12:25.225Z,87.80
2018-01-04T04:14:51.506Z,87.80
2018-01-04T04:17:17.771Z,87.90
2018-01-04T04:19:44.078Z,87.90
2018-01-04T04:22:11.122Z,88.00
2018-01-04T04:24:37.388Z,87.90
2018-01-04T04:27:03.696Z,88.00
2018-01-04T04:29:30.753Z,89.60
2018-01-04T04:31:57.057Z,89.60
2018-01-04T04:34:23.367Z,88.90
2018-01-04T04:36:49.682Z,89.20
2018-01-04T04:39:15.958Z,88.50
2018-01-04T04:41:42.996Z,88.30
2018-01-04T04:44:10.032Z,88.50
2018-01-04T04:46:36.330Z,88.60
2018-01-04T04:49:02.635Z,88.00
2018-01-04T04:51:28.901Z,87.90
2018-01-04T04:53:55.216Z,87.70
2018-01-04T04:56:21.488Z,87.80
2018-01-04T04:58:47.738Z,89.30
2018-01-04T05:01:14.035Z,90.00
2018-01-04T05:03:40.299Z,89.50
2018-01-04T05:06:07.315Z,88.40
2018-01-04T05:08:33.589Z,88.30
2018-01-04T05:10:59.842Z,88.00
2018-01-04T05:13:26.124Z,89.00
2018-01-04T05:15:53.162Z,88.40
2018-01-04T05:18:19.417Z,88.40
2018-01-04T05:20:45.685Z,89.10
2018-01-04T05:23:11.963Z,88.00
2018-01-04T05:25:38.999Z,88.60
2018-01-04T05:28:06.085Z,89.10
2018-01-04T05:30:32.372Z,88.80
2018-01-04T05:32:58.656Z,88.30
2018-01-04T05:35:24.950Z,88.00
2018-01-04T05:37:51.969Z,88.60
2018-01-04T05:40:18.256Z,88.60
2018-01-04T05:42:44.568Z,88.80
2018-01-04T05:45:10.883Z,89.40
2018-01-04T05:47:37.885Z,89.70
2018-01-04T05:50:04.141Z,89.60
2018-01-04T05:52:30.417Z,89.70
2018-01-04T05:54:56.691Z,89.70
2018-01-04T05:57:22.966Z,89.60
2018-01-04T05:59:49.219Z,89.60
2018-01-04T06:02:15.485Z,89.40
2018-01-04T06:04:41.776Z,89.50
2018-01-04T06:07:08.046Z,89.40
2018-01-04T06:09:34.328Z,89.40
2018-01-04T06:12:00.646Z,89.40
2018-01-04T06:14:26.865Z,89.50
2018-01-04T06:16:53.152Z,89.40
2018-01-04T06:19:19.413Z,89.40
2018-01-04T06:21:46.465Z,89.40
2018-01-04T06:24:12.744Z,89.40
2018-01-04T06:26:39.073Z,89.40
2018-01-04T06:29:05.329Z,89.20
2018-01-04T06:34:03.502Z,89.50
2018-01-04T06:36:29.757Z,89.40
2018-01-04T06:38:56.785Z,90.00
2018-01-04T06:41:23.086Z,89.90
2018-01-04T06:43:49.372Z,90.10
2018-01-04T06:46:16.443Z,90.60
2018-01-04T06:48:42.747Z,90.60
2018-01-04T06:51:09.812Z,90.90
2018-01-04T06:53:36.098Z,90.80
2018-01-04T06:56:02.396Z,91.10
2018-01-04T06:58:28.703Z,91.10
2018-01-04T07:00:55.026Z,91.10
2018-01-04T07:03:22.066Z,91.40
2018-01-04T07:05:49.088Z,91.40
2018-01-04T07:08:15.363Z,91.40
2018-01-04T07:10:41.664Z,91.60
2018-01-04T07:13:08.705Z,91.70
2018-01-04T07:15:35.783Z,91.70
2018-01-04T07:18:02.045Z,91.70
2018-01-04T07:20:28.323Z,91.60
2018-01-04T07:22:55.341Z,91.80
2018-01-04T07:25:21.618Z,91.70
2018-01-04T07:27:47.906Z,91.80
2018-01-04T07:30:14.167Z,91.90
2018-01-04T07:32:41.180Z,92.10
2018-01-04T07:35:07.457Z,92.10
2018-01-04T07:37:33.703Z,92.20
2018-01-04T07:39:59.989Z,92.40
2018-01-04T07:42:27.029Z,92.60
2018-01-04T07:44:54.072Z,92.70
2018-01-04T07:47:21.186Z,92.70
2018-01-04T07:49:47.540Z,92.60
2018-01-04T07:52:13.866Z,92.70
2018-01-04T07:54:40.195Z,92.80
2018-01-04T07:57:06.518Z,92.80
2018-01-04T07:59:32.831Z,92.90
2018-01-04T08:01:59.114Z,92.90
2018-01-04T08:04:26.135Z,93.00
2018-01-04T08:06:52.473Z,93.00
2018-01-04T08:09:19.532Z,93.10
2018-01-04T08:11:45.773Z,93.10
2018-01-04T08:14:12.791Z,93.40
2018-01-04T08:16:39.108Z,93.40
2018-01-04T08:19:05.403Z,93.40
2018-01-04T08:21:31.717Z,93.40
2018-01-04T08:23:58.021Z,93.60
2018-01-04T08:26:24.350Z,93.70
2018-01-04T08:28:51.392Z,93.90
2018-01-04T08:31:17.680Z,93.90
2018-01-04T08:33:44.715Z,94.20
2018-01-04T08:36:10.998Z,93.90
2018-01-04T08:38:37.330Z,94.00
2018-01-04T08:41:03.638Z,94.00
2018-01-04T08:43:29.952Z,94.00
2018-01-04T08:45:56.250Z,94.00
2018-01-04T08:48:22.533Z,94.10
2018-01-04T08:50:48.831Z,94.10
2018-01-04T08:53:15.156Z,94.10
2018-01-04T08:55:41.485Z,94.20
2018-01-04T08:58:07.802Z,94.20
2018-01-04T09:00:34.085Z,94.30
2018-01-04T09:03:00.423Z,94.30
2018-01-04T09:05:26.688Z,94.40
2018-01-04T09:07:52.998Z,94.50
2018-01-04T09:10:20.038Z,94.60
2018-01-04T09:12:46.390Z,94.80
2018-01-04T09:15:13.417Z,94.60
2018-01-04T09:17:39.689Z,94.60
2018-01-04T09:20:05.981Z,94.60
2018-01-04T09:22:32.251Z,94.60
2018-01-04T09:24:58.558Z,94.80
2018-01-04T09:27:24.894Z,94.50
2018-01-04T09:29:51.242Z,94.60
2018-01-04T09:32:17.560Z,94.60
2018-01-04T09:34:43.845Z,94.70
2018-01-04T09:37:10.133Z,94.70
2018-01-04T09:39:36.396Z,94.70
2018-01-04T09:42:02.663Z,94.70
2018-01-04T09:44:28.999Z,96.70
2018-01-04T09:46:56.054Z,94.60
2018-01-04T09:49:22.383Z,94.60
2018-01-04T09:51:48.722Z,94.20
2018-01-04T09:54:15.063Z,94.30
2018-01-04T09:56:41.359Z,94.30
2018-01-04T09:59:08.448Z,94.70
2018-01-04T10:01:34.770Z,94.70
2018-01-04T10:04:01.101Z,94.90
2018-01-04T10:06:27.411Z,95.10
2018-01-04T10:08:53.680Z,95.30
2018-01-04T10:11:20.026Z,95.60
2018-01-04T10:13:46.338Z,95.90
2018-01-04T10:16:12.656Z,96.30
2018-01-04T10:18:38.965Z,96.60
2018-01-04T10:21:05.282Z,96.80
2018-01-04T10:23:32.308Z,97.20
2018-01-04T10:25:58.620Z,97.20
2018-01-04T10:28:24.957Z,97.40
2018-01-04T10:30:51.255Z,97.60
2018-01-04T10:33:17.560Z,97.80
2018-01-04T10:35:43.833Z,98.10
2018-01-04T10:38:10.143Z,98.20
2018-01-04T10:40:36.404Z,98.80
2018-01-04T10:43:02.673Z,98.90
2018-01-04T10:45:29.708Z,98.70
2018-01-04T10:47:55.983Z,98.70
2018-01-04T10:50:22.262Z,98.60
2018-01-04T10:52:49.263Z,99.00
2018-01-04T10:55:15.566Z,99.00
2018-01-04T10:57:41.882Z,99.40
2018-01-04T11:00:08.954Z,99.20
2018-01-04T11:02:35.275Z,99.20
2018-01-04T11:05:01.591Z,99.20
2018-01-04T11:07:28.668Z,99.60
2018-01-04T11:09:54.990Z,99.60
2018-01-04T11:12:21.328Z,99.80
2018-01-04T11:14:47.638Z,99.90
2018-01-04T11:17:13.958Z,99.90
2018-01-04T11:19:41.026Z,99.90
2018-01-04T11:22:07.295Z,99.90
2018-01-04T11:24:33.641Z,99.90
2018-01-04T11:26:59.948Z,99.90
2018-01-04T11:29:26.238Z,99.90
2018-01-04T11:31:52.538Z,99.90
2018-01-04T11:34:18.848Z,99.90
2018-01-04T11:36:45.239Z,99.90
2018-01-04T11:39:11.558Z,99.90
2018-01-04T11:41:37.882Z,99.90
2018-01-04T11:44:04.957Z,99.90
2018-01-04T11:46:31.265Z,99.90
2018-01-04T11:48:58.301Z,99.90
2018-01-04T11:51:25.362Z,99.90
2018-01-04T11:53:51.678Z,99.90
2018-01-04T11:56:18.725Z,99.90
2018-01-04T11:58:45.772Z,99.90
2018-01-04T12:01:12.829Z,99.90
2018-01-04T12:03:39.185Z,99.90
2018-01-04T12:06:05.530Z,99.90
2018-01-04T12:08:31.870Z,99.90
2018-01-04T12:10:58.226Z,99.90
2018-01-04T12:13:24.531Z,99.90
2018-01-04T12:15:50.846Z,99.90
2018-01-04T12:18:17.134Z,99.90
2018-01-04T12:20:44.178Z,99.90
2018-01-04T12:23:11.217Z,99.90
2018-01-04T12:25:37.524Z,99.90
2018-01-04T12:28:03.823Z,99.90
2018-01-04T12:30:30.161Z,99.90
2018-01-04T12:32:56.495Z,99.90
2018-01-04T12:35:22.841Z,99.90
2018-01-04T12:37:49.137Z,99.90
2018-01-04T12:40:15.479Z,99.90
2018-01-04T12:42:42.714Z,99.90
2018-01-04T12:45:09.196Z,99.90
2018-01-04T12:47:36.281Z,99.90
2018-01-04T12:50:03.336Z,99.90
2018-01-04T12:52:30.359Z,99.90
2018-01-04T12:54:58.770Z,99.90
2018-01-04T12:57:25.104Z,99.90
2018-01-04T12:59:51.447Z,99.90
2018-01-04T13:02:17.771Z,99.90
2018-01-04T13:04:44.090Z,99.90
2018-01-04T13:07:10.374Z,99.90
2018-01-04T13:09:36.663Z,99.90
2018-01-04T13:12:02.959Z,99.90
2018-01-04T13:14:29.990Z,99.90
2018-01-04T13:16:56.284Z,99.90
2018-01-04T13:19:22.591Z,99.90
2018-01-04T13:21:48.897Z,99.90
2018-01-04T13:24:15.936Z,99.90
2018-01-04T13:26:42.225Z,99.90
2018-01-04T13:29:08.497Z,99.90
2018-01-04T13:31:34.802Z,99.90
2018-01-04T13:34:01.085Z,99.90
2018-01-04T13:36:27.378Z,99.90
2018-01-04T13:38:53.673Z,99.90
2018-01-04T13:41:19.961Z,99.90
2018-01-04T13:43:46.997Z,99.90
2018-01-04T13:46:14.061Z,99.90
2018-01-04T13:48:41.046Z,99.90
2018-01-04T13:51:07.361Z,99.90
2018-01-04T13:53:33.660Z,99.90
2018-01-04T13:56:00.716Z,99.90
2018-01-04T13:58:26.981Z,99.90
2018-01-04T14:00:53.276Z,99.90
2018-01-04T14:03:19.570Z,99.90
2018-01-04T14:05:45.862Z,99.90
2018-01-04T14:08:12.212Z,99.90
2018-01-04T14:10:38.508Z,99.90
2018-01-04T14:13:04.810Z,99.90
2018-01-04T14:15:31.878Z,99.90
2018-01-04T14:17:58.157Z,99.90
2018-01-04T14:20:24.498Z,99.90
2018-01-04T14:22:50.792Z,99.90
2018-01-04T14:25:17.187Z,99.90
2018-01-04T14:27:43.539Z,99.90
2018-01-04T14:30:09.825Z,99.90
2018-01-04T14:32:36.125Z,99.90
2018-01-04T14:35:02.463Z,99.90
2018-01-04T14:37:28.747Z,99.90
2018-01-04T14:39:55.814Z,99.90
2018-01-04T14:42:22.110Z,99.90
2018-01-04T14:44:49.163Z,99.90
2018-01-04T14:47:15.463Z,99.90
2018-01-04T14:49:41.737Z,99.90
2018-01-04T14:52:08.086Z,99.90
2018-01-04T14:54:34.376Z,99.90
2018-01-04T14:57:01.442Z,99.90
2018-01-04T14:59:27.776Z,99.90
2018-01-04T15:01:54.116Z,99.90
2018-01-04T15:04:20.409Z,99.90
2018-01-04T15:06:47.424Z,99.90
2018-01-04T15:09:13.739Z,99.90
2018-01-04T15:11:40.014Z,99.90
2018-01-04T15:14:07.123Z,99.90
2018-01-04T15:16:33.417Z,99.90
2018-01-04T15:18:59.719Z,99.90
2018-01-04T15:21:26.070Z,99.90
2018-01-04T15:23:52.365Z,99.90
2018-01-04T15:26:18.686Z,99.90
2018-01-04T15:28:45.020Z,99.90
2018-01-04T15:31:11.338Z,99.90
2018-01-04T15:33:37.646Z,99.90
2018-01-04T15:36:03.944Z,99.90
2018-01-04T15:38:31.036Z,99.90
2018-01-04T15:40:57.360Z,99.90
2018-01-04T15:43:23.716Z,99.90
2018-01-04T15:45:50.064Z,99.90
2018-01-04T15:48:17.147Z,99.90
2018-01-04T15:50:43.476Z,99.90
2018-01-04T15:53:09.769Z,99.90
2018-01-04T15:55:37.064Z,99.90
2018-01-04T15:58:03.365Z,99.90
2018-01-04T16:00:30.393Z,99.90
2018-01-04T16:02:56.687Z,99.90
2018-01-04T16:05:22.990Z,99.90
2018-01-04T16:07:49.584Z,99.90
2018-01-04T16:10:15.938Z,99.90
2018-01-04T16:12:42.994Z,99.90
2018-01-04T16:15:10.097Z,99.90
2018-01-04T16:17:36.403Z,99.90
2018-01-04T16:20:02.790Z,99.90
2018-01-04T16:22:29.107Z,99.90
2018-01-04T16:24:55.426Z,99.90
2018-01-04T16:27:21.718Z,99.90
2018-01-04T16:29:48.039Z,99.90
2018-01-04T16:32:14.354Z,99.90
2018-01-04T16:34:40.650Z,99.90
2018-01-04T16:37:06.942Z,99.90
2018-01-04T16:39:33.252Z,99.90
2018-01-04T16:42:00.294Z,99.90
2018-01-04T16:44:28.078Z,99.90
2018-01-04T16:46:54.344Z,99.90
2018-01-04T16:49:20.624Z,99.90
2018-01-04T16:51:47.694Z,99.90
2018-01-04T16:54:14.014Z,99.90
2018-01-04T16:56:40.298Z,99.90
2018-01-04T16:59:06.619Z,99.90
2018-01-04T17:01:32.944Z,99.90
2018-01-04T17:03:59.240Z,99.90
2018-01-04T17:06:25.543Z,99.90
2018-01-04T17:08:52.589Z,99.90
2018-01-04T17:11:19.651Z,99.90
2018-01-04T17:13:46.713Z,99.90
2018-01-04T17:16:13.052Z,99.90
2018-01-04T17:18:39.381Z,99.90
2018-01-04T17:21:05.732Z,99.90
2018-01-04T17:23:32.042Z,99.90
2018-01-04T17:25:58.356Z,99.90
2018-01-04T17:28:25.422Z,99.90
2018-01-04T17:30:51.718Z,99.90
2018-01-04T17:33:18.776Z,99.90
2018-01-04T17:35:45.156Z,99.90
2018-01-04T17:38:11.517Z,99.90
2018-01-04T17:40:38.608Z,99.90
2018-01-04T17:43:05.039Z,99.90
2018-01-04T17:45:31.450Z,99.90
2018-01-04T17:47:57.786Z,99.90
2018-01-04T17:50:24.209Z,99.90
2018-01-04T17:52:51.277Z,99.90
2018-01-04T17:55:17.589Z,99.90
2018-01-04T17:57:44.721Z,99.90
2018-01-04T18:00:11.433Z,99.90
2018-01-04T18:02:38.990Z,99.90
2018-01-04T18:05:05.486Z,99.90
2018-01-04T18:07:31.864Z,99.90
2018-01-04T18:09:58.224Z,99.90
2018-01-04T18:12:25.319Z,99.90
2018-01-04T18:14:51.688Z,99.90
2018-01-04T18:17:18.067Z,99.90
2018-01-04T18:19:44.555Z,99.90
2018-01-04T18:22:11.685Z,99.90
2018-01-04T18:24:38.103Z,99.90
2018-01-04T18:27:04.523Z,99.90
2018-01-04T18:29:30.934Z,99.90
2018-01-04T18:31:57.365Z,99.90
2018-01-04T18:34:23.776Z,99.90
2018-01-04T18:36:50.921Z,99.90
2018-01-04T18:39:17.313Z,99.90
2018-01-04T18:41:43.652Z,99.90
2018-01-04T18:44:10.862Z,99.90
2018-01-04T18:46:37.238Z,99.90
2018-01-04T18:49:03.656Z,99.90
2018-01-04T18:51:30.064Z,99.90
2018-01-04T18:53:56.444Z,99.90
2018-01-04T18:56:22.887Z,99.90
2018-01-04T18:58:49.236Z,99.90
2018-01-04T19:01:16.340Z,99.90
2018-01-04T19:03:42.716Z,99.90
2018-01-04T19:06:09.853Z,99.90
2018-01-04T19:08:36.263Z,99.90
2018-01-04T19:11:02.674Z,99.90
2018-01-04T19:13:29.093Z,99.90
2018-01-04T19:15:55.506Z,99.90
2018-01-04T19:18:21.924Z,99.90
2018-01-04T19:20:49.090Z,99.90
2018-01-04T19:23:15.486Z,99.90
2018-01-04T19:25:41.907Z,99.90
2018-01-04T19:28:08.332Z,99.90
2018-01-04T19:30:34.771Z,99.90
2018-01-04T19:33:01.168Z,99.90
2018-01-04T19:35:27.534Z,99.90
2018-01-04T19:37:53.933Z,99.90
2018-01-04T19:40:20.360Z,99.90
2018-01-04T19:42:46.782Z,99.90
2018-01-04T19:45:13.253Z,99.90
2018-01-04T19:47:39.620Z,99.90
2018-01-04T19:50:06.877Z,99.90
2018-01-04T19:52:34.032Z,99.90
2018-01-04T19:55:01.213Z,99.90
2018-01-04T19:57:27.653Z,99.90
2018-01-04T19:59:54.070Z,99.90
2018-01-04T20:02:20.463Z,99.90
2018-01-04T20:04:46.894Z,99.90
2018-01-04T20:07:13.302Z,99.90
2018-01-04T20:09:39.684Z,99.90
2018-01-04T20:12:06.129Z,99.90
2018-01-04T20:14:32.545Z,99.90
2018-01-04T20:16:59.713Z,99.90
2018-01-04T20:19:26.099Z,99.90
2018-01-04T20:21:52.470Z,99.90
2018-01-04T20:24:19.587Z,99.90
2018-01-04T20:26:46.016Z,99.90
2018-01-04T20:29:12.470Z,99.90
2018-01-04T20:31:39.709Z,99.90
2018-01-04T20:34:06.873Z,99.90
2018-01-04T20:36:34.026Z,99.90
2018-01-04T20:39:01.152Z,99.90
2018-01-04T20:41:27.649Z,99.90
2018-01-04T20:43:54.043Z,99.90
2018-01-04T20:46:20.482Z,99.90
2018-01-04T20:48:46.854Z,99.90
2018-01-04T20:51:13.295Z,99.90
2018-01-04T20:53:39.777Z,99.90
2018-01-04T20:56:06.912Z,99.90
2018-01-04T20:58:34.091Z,99.90
2018-01-04T21:01:00.531Z,99.90
2018-01-04T21:03:26.946Z,99.90
2018-01-04T21:05:54.091Z,99.90
2018-01-04T21:08:20.499Z,99.90
2018-01-04T21:10:46.959Z,99.90
2018-01-04T21:13:14.097Z,99.90
2018-01-04T21:15:41.293Z,99.90
2018-01-04T21:18:07.677Z,99.90
2018-01-04T21:20:34.851Z,99.90
2018-01-04T21:23:01.268Z,99.90
2018-01-04T21:25:28.403Z,99.90
2018-01-04T21:27:54.846Z,99.90
2018-01-04T21:30:22.017Z,99.90
2018-01-04T21:32:48.441Z,99.90
2018-01-04T21:35:14.847Z,99.90
2018-01-04T21:37:41.396Z,99.90
2018-01-04T21:40:07.763Z,99.90
2018-01-04T21:42:34.488Z,99.90
2018-01-04T21:45:00.909Z,99.90
2018-01-04T21:47:27.329Z,99.90
2018-01-04T21:49:54.488Z,99.90
2018-01-04T21:52:21.647Z,99.90
2018-01-04T21:54:48.063Z,99.90
2018-01-04T21:57:15.193Z,99.90
2018-01-04T21:59:41.925Z,99.90
2018-01-04T22:02:08.392Z,99.90
2018-01-04T22:04:35.570Z,99.90
2018-01-04T22:07:02.019Z,99.90
2018-01-04T22:09:28.472Z,99.90
2018-01-04T22:11:54.962Z,99.90
2018-01-04T22:14:21.408Z,99.90
2018-01-04T22:16:47.828Z,99.90
2018-01-04T22:19:14.239Z,99.90
2018-01-04T22:21:41.382Z,99.90
2018-01-04T22:24:07.742Z,99.90
2018-01-04T22:26:34.127Z,99.90
2018-01-04T22:29:00.740Z,99.90
2018-01-04T22:31:27.080Z,99.90
2018-01-04T22:33:53.436Z,99.90
2018-01-04T22:36:19.833Z,99.90
2018-01-04T22:38:46.944Z,99.90
2018-01-04T22:41:14.069Z,99.90
2018-01-04T22:43:40.406Z,99.90
2018-01-04T22:46:06.767Z,99.90
2018-01-04T22:48:33.076Z,99.90
2018-01-04T22:50:59.430Z,99.90
2018-01-04T22:53:25.782Z,99.90
2018-01-04T22:55:52.139Z,99.90
2018-01-04T22:58:18.459Z,99.90
2018-01-04T23:00:47.700Z,99.90
2018-01-04T23:03:14.067Z,99.90
2018-01-04T23:05:40.462Z,99.90
2018-01-04T23:08:06.746Z,99.90
2018-01-04T23:10:33.118Z,99.90
2018-01-04T23:12:59.409Z,99.90
2018-01-04T23:15:25.728Z,99.90
2018-01-04T23:17:52.022Z,99.90
2018-01-04T23:20:18.330Z,99.90
2018-01-04T23:22:44.614Z,99.90
2018-01-04T23:25:10.918Z,99.90
2018-01-04T23:27:37.954Z,99.10
2018-01-04T23:30:04.228Z,99.10
2018-01-04T23:32:30.568Z,98.70
2018-01-04T23:34:56.895Z,98.50
2018-01-04T23:37:23.198Z,98.30
2018-01-04T23:39:49.490Z,98.00
2018-01-04T23:42:15.779Z,97.60
2018-01-04T23:44:42.043Z,97.50
2018-01-04T23:47:08.313Z,97.10
2018-01-04T23:49:35.318Z,97.00
2018-01-04T23:52:01.637Z,97.00
2018-01-04T23:54:27.960Z,97.00
2018-01-04T23:56:54.280Z,96.90
2018-01-04T23:59:20.565Z,97.00
